Aérodrome :
LOGIN :

S'inscrire | Disclaimer

   EN    FR    IT 

 










Légende :    VFR   VFR Marginal   IFR   IFR Intensif   IFR Très Intensif
Visi : 
Plafond : 
>= 8 km
>= 3000ft
5 à 8 km
1000 à 3000 ft
1500m à 5 km
500 à 1000 ft
800 à 1500m
200 à 500 ft
< 800m
< 200 ft
Symboles :   Orages  Brouillard  Fortes neiges  Fortes précipitations  Vent > 20 kt
SIGMETs :   Divers  Orages  Givrage  Turbulence  Onde Orograph.  Cendres Volcan.






- Altitude de l'aérodrome : 3 ft
- Code IATA : LWR


EHLW - Leuuwarden Air Base

DERNIER METAR :
  • 151234Z AUTO 07013KT 340V130 6000 BR FEW007 SCT008 BKN009 04/03 Q1003 GRN

METARs EXPIRÉS :
  • 151225Z AUTO 07013KT 350V130 6000 BR SCT008 BKN009 OVC010 04/03 Q1003 GRN
  • 151210Z AUTO 07013KT 360V120 6000 BR FEW008 SCT013 OVC016 04/03 Q1003 GRN
  • 151155Z AUTO 07012KT 330V140 6000 BR FEW007 SCT009 BKN010 04/03 Q1003 GRN
  • 151125Z AUTO 06014KT 360V130 6000 BR SCT007 BKN008 OVC009 04/03 Q1003 GRN
  • 151103Z AUTO 05015KT 010V110 6000 BR FEW007 SCT009 BKN010 04/03 Q1003 GRN
  • 151055Z AUTO 05015KT 360V110 6000 BR FEW008 SCT011 BKN015 04/03 Q1003 GRN
  • 151025Z AUTO 06015KT 350V110 6000 BR FEW009 SCT010 BKN013 04/02 Q1004 GRN
  • 151010Z AUTO 06016KT 360V110 6000 BR SCT010 BKN013 OVC018 04/02 Q1004 GRN
  • 151003Z AUTO 06016KT 360V120 6000 BR FEW010 SCT012 OVC015 04/02 Q1004 GRN
  • 150937Z AUTO 06016KT 340V130 7000 BR FEW010 SCT012 BKN016 04/02 Q1004 GRN

TAF AMD TAF EHLW
Valide du 15 à 12h jusqu'au 15 à 22h UTC


151104Z 1512/1522 06016KT 7000 FEW010 SCT014 BKN017
TEMPO 1512/1516 SCT008 BKN010
BECMG 1514/1516 11006KT SCT017 OVC020



MET'MAP, la Météo Aéronautique d'un coup d'oeil ! - Copyright ORBIFLY Décembre 2007 - Disclaimer

ORBIFLY MET'MAP TEAM :

Programmation & Développement : Alexandra Zaïnal
Conception & Développement : Baudouin d'Aumeries
Co-Programmation & Développement : Marc-Olivier Méhu
Soutien technique & logistique : Manuel Goepfert

Contact : metmap@orbifly.com




SOURCES & CREDITS :

   NOAA